sensor_id;sensor_type;location;lat;lon;timestamp;P1;durP1;ratioP1;P2;durP2;ratioP2
19059;SDS011;9663;48.996;8.334;2023-03-29T00:01:15;2.28;;;0.82;;
19059;SDS011;9663;48.996;8.334;2023-03-29T00:03:41;2.03;;;0.73;;
19059;SDS011;9663;48.996;8.334;2023-03-29T00:06:09;1.98;;;0.90;;
19059;SDS011;9663;48.996;8.334;2023-03-29T00:08:39;2.75;;;0.90;;
19059;SDS011;9663;48.996;8.334;2023-03-29T00:11:06;2.47;;;0.80;;
19059;SDS011;9663;48.996;8.334;2023-03-29T00:13:32;2.33;;;0.82;;
19059;SDS011;9663;48.996;8.334;2023-03-29T00:15:58;1.77;;;0.80;;
19059;SDS011;9663;48.996;8.334;2023-03-29T00:18:24;1.58;;;0.70;;
19059;SDS011;9663;48.996;8.334;2023-03-29T00:20:53;1.98;;;0.82;;
19059;SDS011;9663;48.996;8.334;2023-03-29T00:23:20;2.65;;;0.93;;
19059;SDS011;9663;48.996;8.334;2023-03-29T00:25:46;2.72;;;0.85;;
19059;SDS011;9663;48.996;8.334;2023-03-29T00:28:12;1.90;;;0.73;;
19059;SDS011;9663;48.996;8.334;2023-03-29T00:30:39;1.83;;;0.80;;
19059;SDS011;9663;48.996;8.334;2023-03-29T00:33:05;3.47;;;0.90;;
19059;SDS011;9663;48.996;8.334;2023-03-29T00:35:31;1.95;;;0.80;;
19059;SDS011;9663;48.996;8.334;2023-03-29T00:37:57;1.92;;;0.80;;
19059;SDS011;9663;48.996;8.334;2023-03-29T00:40:23;2.13;;;0.82;;
19059;SDS011;9663;48.996;8.334;2023-03-29T00:42:49;2.22;;;0.82;;
19059;SDS011;9663;48.996;8.334;2023-03-29T00:45:16;2.05;;;0.80;;
19059;SDS011;9663;48.996;8.334;2023-03-29T00:47:50;1.75;;;0.80;;
19059;SDS011;9663;48.996;8.334;2023-03-29T00:50:38;2.72;;;0.90;;
19059;SDS011;9663;48.996;8.334;2023-03-29T00:53:13;1.90;;;0.80;;
19059;SDS011;9663;48.996;8.334;2023-03-29T00:56:04;3.42;;;0.75;;
19059;SDS011;9663;48.996;8.334;2023-03-29T00:58:43;2.25;;;0.80;;
19059;SDS011;9663;48.996;8.334;2023-03-29T01:01:28;1.92;;;0.77;;
19059;SDS011;9663;48.996;8.334;2023-03-29T01:04:07;1.50;;;0.60;;
19059;SDS011;9663;48.996;8.334;2023-03-29T01:06:44;1.85;;;0.70;;
19059;SDS011;9663;48.996;8.334;2023-03-29T01:09:17;1.55;;;0.57;;
19059;SDS011;9663;48.996;8.334;2023-03-29T01:11:52;1.75;;;0.70;;
19059;SDS011;9663;48.996;8.334;2023-03-29T01:14:22;2.13;;;0.80;;
19059;SDS011;9663;48.996;8.334;2023-03-29T01:16:59;1.92;;;0.80;;
19059;SDS011;9663;48.996;8.334;2023-03-29T01:19:26;1.95;;;0.70;;
19059;SDS011;9663;48.996;8.334;2023-03-29T01:24:55;1.27;;;0.68;;
19059;SDS011;9663;48.996;8.334;2023-03-29T01:30:29;2.17;;;0.90;;
19059;SDS011;9663;48.996;8.334;2023-03-29T01:33:09;3.35;;;0.88;;
19059;SDS011;9663;48.996;8.334;2023-03-29T01:35:49;2.10;;;0.88;;
19059;SDS011;9663;48.996;8.334;2023-03-29T01:39:12;2.05;;;0.70;;
19059;SDS011;9663;48.996;8.334;2023-03-29T01:41:20;1.08;;;0.55;;
19059;SDS011;9663;48.996;8.334;2023-03-29T01:43:53;1.45;;;0.70;;
19059;SDS011;9663;48.996;8.334;2023-03-29T01:46:33;1.75;;;0.80;;
19059;SDS011;9663;48.996;8.334;2023-03-29T01:49:23;2.13;;;0.65;;
19059;SDS011;9663;48.996;8.334;2023-03-29T01:52:29;1.98;;;0.70;;
19059;SDS011;9663;48.996;8.334;2023-03-29T01:55:04;1.70;;;0.80;;
19059;SDS011;9663;48.996;8.334;2023-03-29T01:57:40;1.98;;;0.75;;
19059;SDS011;9663;48.996;8.334;2023-03-29T02:00:12;1.63;;;0.70;;
19059;SDS011;9663;48.996;8.334;2023-03-29T02:02:43;1.42;;;0.60;;
19059;SDS011;9663;48.996;8.334;2023-03-29T02:05:12;1.52;;;0.70;;
19059;SDS011;9663;48.996;8.334;2023-03-29T02:07:40;2.15;;;0.80;;
19059;SDS011;9663;48.996;8.334;2023-03-29T02:10:10;1.50;;;0.80;;
19059;SDS011;9663;48.996;8.334;2023-03-29T02:12:38;1.90;;;0.70;;
19059;SDS011;9663;48.996;8.334;2023-03-29T02:15:04;1.55;;;0.70;;
19059;SDS011;9663;48.996;8.334;2023-03-29T02:17:37;1.08;;;0.60;;
19059;SDS011;9663;48.996;8.334;2023-03-29T02:20:12;1.77;;;0.75;;
19059;SDS011;9663;48.996;8.334;2023-03-29T02:25:28;2.03;;;0.68;;
19059;SDS011;9663;48.996;8.334;2023-03-29T02:27:56;1.38;;;0.70;;
19059;SDS011;9663;48.996;8.334;2023-03-29T02:30:23;1.35;;;0.60;;
19059;SDS011;9663;48.996;8.334;2023-03-29T02:33:44;1.38;;;0.75;;
19059;SDS011;9663;48.996;8.334;2023-03-29T02:36:51;1.33;;;0.68;;
19059;SDS011;9663;48.996;8.334;2023-03-29T02:39:16;2.35;;;0.80;;
19059;SDS011;9663;48.996;8.334;2023-03-29T02:41:47;1.95;;;0.70;;
19059;SDS011;9663;48.996;8.334;2023-03-29T02:44:25;1.60;;;0.70;;
19059;SDS011;9663;48.996;8.334;2023-03-29T02:46:55;1.88;;;0.70;;
19059;SDS011;9663;48.996;8.334;2023-03-29T02:49:29;1.83;;;0.80;;
19059;SDS011;9663;48.996;8.334;2023-03-29T02:51:56;1.88;;;0.70;;
19059;SDS011;9663;48.996;8.334;2023-03-29T02:54:32;2.10;;;0.70;;
19059;SDS011;9663;48.996;8.334;2023-03-29T02:57:02;1.20;;;0.60;;
19059;SDS011;9663;48.996;8.334;2023-03-29T02:59:32;2.75;;;0.70;;
19059;SDS011;9663;48.996;8.334;2023-03-29T03:01:59;1.52;;;0.70;;
19059;SDS011;9663;48.996;8.334;2023-03-29T03:04:25;1.73;;;0.70;;
19059;SDS011;9663;48.996;8.334;2023-03-29T03:06:52;1.38;;;0.70;;
19059;SDS011;9663;48.996;8.334;2023-03-29T03:09:17;1.60;;;0.70;;
19059;SDS011;9663;48.996;8.334;2023-03-29T03:11:43;1.63;;;0.80;;
19059;SDS011;9663;48.996;8.334;2023-03-29T03:14:09;1.63;;;0.65;;
19059;SDS011;9663;48.996;8.334;2023-03-29T03:16:35;1.58;;;0.75;;
19059;SDS011;9663;48.996;8.334;2023-03-29T03:19:01;2.35;;;0.90;;
19059;SDS011;9663;48.996;8.334;2023-03-29T03:21:27;1.77;;;0.80;;
19059;SDS011;9663;48.996;8.334;2023-03-29T03:23:54;2.42;;;0.90;;
19059;SDS011;9663;48.996;8.334;2023-03-29T03:26:20;2.15;;;0.90;;
19059;SDS011;9663;48.996;8.334;2023-03-29T03:28:48;1.73;;;0.75;;
19059;SDS011;9663;48.996;8.334;2023-03-29T03:31:15;1.92;;;0.80;;
19059;SDS011;9663;48.996;8.334;2023-03-29T03:33:41;2.58;;;0.90;;
19059;SDS011;9663;48.996;8.334;2023-03-29T03:36:07;2.42;;;0.90;;
19059;SDS011;9663;48.996;8.334;2023-03-29T03:38:35;2.60;;;0.95;;
19059;SDS011;9663;48.996;8.334;2023-03-29T03:41:02;2.08;;;0.88;;
19059;SDS011;9663;48.996;8.334;2023-03-29T03:43:29;2.47;;;0.98;;
19059;SDS011;9663;48.996;8.334;2023-03-29T03:45:55;3.15;;;1.05;;
19059;SDS011;9663;48.996;8.334;2023-03-29T03:48:21;2.22;;;0.80;;
19059;SDS011;9663;48.996;8.334;2023-03-29T03:50:52;2.28;;;0.90;;
19059;SDS011;9663;48.996;8.334;2023-03-29T03:53:21;2.20;;;0.95;;
19059;SDS011;9663;48.996;8.334;2023-03-29T03:55:48;2.72;;;1.10;;
19059;SDS011;9663;48.996;8.334;2023-03-29T03:58:19;2.25;;;0.77;;
19059;SDS011;9663;48.996;8.334;2023-03-29T04:00:47;3.63;;;0.98;;
19059;SDS011;9663;48.996;8.334;2023-03-29T04:03:15;2.70;;;0.95;;
19059;SDS011;9663;48.996;8.334;2023-03-29T04:05:43;3.83;;;0.80;;
19059;SDS011;9663;48.996;8.334;2023-03-29T04:08:10;1.98;;;0.90;;
19059;SDS011;9663;48.996;8.334;2023-03-29T04:10:37;2.20;;;0.80;;
19059;SDS011;9663;48.996;8.334;2023-03-29T04:13:03;3.33;;;0.98;;
19059;SDS011;9663;48.996;8.334;2023-03-29T04:15:30;2.17;;;0.90;;
19059;SDS011;9663;48.996;8.334;2023-03-29T04:17:59;2.30;;;0.80;;
19059;SDS011;9663;48.996;8.334;2023-03-29T04:20:25;2.05;;;0.80;;
19059;SDS011;9663;48.996;8.334;2023-03-29T04:22:52;2.47;;;0.88;;
19059;SDS011;9663;48.996;8.334;2023-03-29T04:25:18;3.00;;;1.00;;
19059;SDS011;9663;48.996;8.334;2023-03-29T04:27:46;2.20;;;0.90;;
19059;SDS011;9663;48.996;8.334;2023-03-29T04:30:15;2.08;;;0.88;;
19059;SDS011;9663;48.996;8.334;2023-03-29T04:32:41;2.00;;;0.77;;
19059;SDS011;9663;48.996;8.334;2023-03-29T04:35:07;1.95;;;0.75;;
19059;SDS011;9663;48.996;8.334;2023-03-29T04:37:34;2.25;;;1.00;;
19059;SDS011;9663;48.996;8.334;2023-03-29T04:40:00;2.72;;;1.00;;
19059;SDS011;9663;48.996;8.334;2023-03-29T04:42:28;3.20;;;1.10;;
19059;SDS011;9663;48.996;8.334;2023-03-29T04:44:54;1.70;;;0.80;;
19059;SDS011;9663;48.996;8.334;2023-03-29T04:47:21;1.83;;;0.88;;
19059;SDS011;9663;48.996;8.334;2023-03-29T04:49:47;1.83;;;0.75;;
19059;SDS011;9663;48.996;8.334;2023-03-29T04:52:13;2.40;;;0.75;;
19059;SDS011;9663;48.996;8.334;2023-03-29T04:54:39;2.70;;;0.95;;
19059;SDS011;9663;48.996;8.334;2023-03-29T04:57:05;1.67;;;0.80;;
19059;SDS011;9663;48.996;8.334;2023-03-29T04:59:32;2.15;;;0.85;;
19059;SDS011;9663;48.996;8.334;2023-03-29T05:01:58;2.03;;;0.90;;
19059;SDS011;9663;48.996;8.334;2023-03-29T05:04:26;3.25;;;0.95;;
19059;SDS011;9663;48.996;8.334;2023-03-29T05:06:53;2.33;;;0.90;;
19059;SDS011;9663;48.996;8.334;2023-03-29T05:09:19;2.15;;;0.90;;
19059;SDS011;9663;48.996;8.334;2023-03-29T05:11:46;2.90;;;1.08;;
19059;SDS011;9663;48.996;8.334;2023-03-29T05:14:12;2.28;;;0.75;;
19059;SDS011;9663;48.996;8.334;2023-03-29T05:16:38;2.28;;;0.98;;
19059;SDS011;9663;48.996;8.334;2023-03-29T05:19:06;3.55;;;0.80;;
19059;SDS011;9663;48.996;8.334;2023-03-29T05:21:33;2.35;;;0.90;;
19059;SDS011;9663;48.996;8.334;2023-03-29T05:24:00;2.50;;;1.02;;
19059;SDS011;9663;48.996;8.334;2023-03-29T05:26:26;1.50;;;0.80;;
19059;SDS011;9663;48.996;8.334;2023-03-29T05:28:52;4.10;;;1.10;;
19059;SDS011;9663;48.996;8.334;2023-03-29T05:31:18;3.67;;;1.20;;
19059;SDS011;9663;48.996;8.334;2023-03-29T05:33:45;3.28;;;1.20;;
19059;SDS011;9663;48.996;8.334;2023-03-29T05:36:13;2.90;;;1.00;;
19059;SDS011;9663;48.996;8.334;2023-03-29T05:38:42;2.13;;;0.90;;
19059;SDS011;9663;48.996;8.334;2023-03-29T05:41:10;2.25;;;0.80;;
19059;SDS011;9663;48.996;8.334;2023-03-29T05:43:36;2.67;;;1.00;;
19059;SDS011;9663;48.996;8.334;2023-03-29T05:46:02;2.30;;;1.00;;
19059;SDS011;9663;48.996;8.334;2023-03-29T05:48:29;1.73;;;0.70;;
19059;SDS011;9663;48.996;8.334;2023-03-29T05:50:56;2.72;;;1.17;;
19059;SDS011;9663;48.996;8.334;2023-03-29T05:53:23;2.38;;;0.90;;
19059;SDS011;9663;48.996;8.334;2023-03-29T05:55:51;2.83;;;0.90;;
19059;SDS011;9663;48.996;8.334;2023-03-29T05:58:17;2.33;;;0.93;;
19059;SDS011;9663;48.996;8.334;2023-03-29T06:00:46;2.30;;;0.98;;
19059;SDS011;9663;48.996;8.334;2023-03-29T06:03:16;2.05;;;0.90;;
19059;SDS011;9663;48.996;8.334;2023-03-29T06:05:45;2.95;;;0.88;;
19059;SDS011;9663;48.996;8.334;2023-03-29T06:08:13;2.47;;;1.00;;
19059;SDS011;9663;48.996;8.334;2023-03-29T06:10:41;2.30;;;0.90;;
19059;SDS011;9663;48.996;8.334;2023-03-29T06:13:07;2.58;;;1.00;;
19059;SDS011;9663;48.996;8.334;2023-03-29T06:15:33;2.95;;;1.30;;
19059;SDS011;9663;48.996;8.334;2023-03-29T06:17:59;3.53;;;1.10;;
19059;SDS011;9663;48.996;8.334;2023-03-29T06:20:26;2.72;;;1.17;;
19059;SDS011;9663;48.996;8.334;2023-03-29T06:22:52;2.80;;;1.25;;
19059;SDS011;9663;48.996;8.334;2023-03-29T06:25:18;2.60;;;1.00;;
19059;SDS011;9663;48.996;8.334;2023-03-29T06:27:44;2.88;;;1.00;;
19059;SDS011;9663;48.996;8.334;2023-03-29T06:30:13;3.20;;;1.20;;
19059;SDS011;9663;48.996;8.334;2023-03-29T06:32:40;2.90;;;1.20;;
19059;SDS011;9663;48.996;8.334;2023-03-29T06:35:07;2.65;;;0.95;;
19059;SDS011;9663;48.996;8.334;2023-03-29T06:37:34;3.35;;;1.10;;
19059;SDS011;9663;48.996;8.334;2023-03-29T06:40:03;2.75;;;1.13;;
19059;SDS011;9663;48.996;8.334;2023-03-29T06:42:30;2.75;;;1.05;;
19059;SDS011;9663;48.996;8.334;2023-03-29T06:44:56;2.60;;;0.98;;
19059;SDS011;9663;48.996;8.334;2023-03-29T06:47:23;2.30;;;1.00;;
19059;SDS011;9663;48.996;8.334;2023-03-29T06:49:54;2.45;;;1.20;;
19059;SDS011;9663;48.996;8.334;2023-03-29T06:52:20;2.70;;;1.20;;
19059;SDS011;9663;48.996;8.334;2023-03-29T06:54:46;2.42;;;1.00;;
19059;SDS011;9663;48.996;8.334;2023-03-29T06:57:12;3.28;;;1.27;;
19059;SDS011;9663;48.996;8.334;2023-03-29T06:59:38;3.13;;;1.25;;
19059;SDS011;9663;48.996;8.334;2023-03-29T07:02:03;2.70;;;1.00;;
19059;SDS011;9663;48.996;8.334;2023-03-29T07:04:30;2.47;;;0.98;;
19059;SDS011;9663;48.996;8.334;2023-03-29T07:06:56;2.63;;;1.10;;
19059;SDS011;9663;48.996;8.334;2023-03-29T07:09:26;3.13;;;1.05;;
19059;SDS011;9663;48.996;8.334;2023-03-29T07:11:58;3.15;;;1.10;;
19059;SDS011;9663;48.996;8.334;2023-03-29T07:14:25;3.33;;;1.20;;
19059;SDS011;9663;48.996;8.334;2023-03-29T07:16:54;2.85;;;1.20;;
19059;SDS011;9663;48.996;8.334;2023-03-29T07:19:22;3.20;;;1.25;;
19059;SDS011;9663;48.996;8.334;2023-03-29T07:21:49;2.83;;;1.08;;
19059;SDS011;9663;48.996;8.334;2023-03-29T07:24:17;2.58;;;1.10;;
19059;SDS011;9663;48.996;8.334;2023-03-29T07:26:44;3.17;;;1.15;;
19059;SDS011;9663;48.996;8.334;2023-03-29T07:29:10;2.55;;;1.20;;
19059;SDS011;9663;48.996;8.334;2023-03-29T07:31:37;3.58;;;1.13;;
19059;SDS011;9663;48.996;8.334;2023-03-29T07:34:05;3.95;;;1.35;;
19059;SDS011;9663;48.996;8.334;2023-03-29T07:36:35;3.95;;;1.20;;
19059;SDS011;9663;48.996;8.334;2023-03-29T07:39:02;4.28;;;1.25;;
19059;SDS011;9663;48.996;8.334;2023-03-29T07:41:30;2.95;;;1.05;;
19059;SDS011;9663;48.996;8.334;2023-03-29T07:43:55;2.53;;;1.10;;
19059;SDS011;9663;48.996;8.334;2023-03-29T07:46:21;4.47;;;1.10;;
19059;SDS011;9663;48.996;8.334;2023-03-29T07:48:47;3.30;;;1.20;;
19059;SDS011;9663;48.996;8.334;2023-03-29T07:51:13;2.88;;;1.20;;
19059;SDS011;9663;48.996;8.334;2023-03-29T07:53:40;2.90;;;1.15;;
19059;SDS011;9663;48.996;8.334;2023-03-29T07:56:06;3.40;;;1.27;;
19059;SDS011;9663;48.996;8.334;2023-03-29T07:58:33;2.45;;;1.05;;
19059;SDS011;9663;48.996;8.334;2023-03-29T08:00:59;3.15;;;1.42;;
19059;SDS011;9663;48.996;8.334;2023-03-29T08:03:24;2.88;;;1.10;;
19059;SDS011;9663;48.996;8.334;2023-03-29T08:05:51;2.90;;;1.10;;
19059;SDS011;9663;48.996;8.334;2023-03-29T08:08:17;2.97;;;1.23;;
19059;SDS011;9663;48.996;8.334;2023-03-29T08:10:43;3.92;;;1.05;;
19059;SDS011;9663;48.996;8.334;2023-03-29T08:13:09;3.30;;;1.10;;
19059;SDS011;9663;48.996;8.334;2023-03-29T08:15:36;3.35;;;1.27;;
19059;SDS011;9663;48.996;8.334;2023-03-29T08:18:03;3.22;;;1.52;;
19059;SDS011;9663;48.996;8.334;2023-03-29T08:20:31;4.47;;;1.35;;
19059;SDS011;9663;48.996;8.334;2023-03-29T08:22:56;2.78;;;1.05;;
19059;SDS011;9663;48.996;8.334;2023-03-29T08:25:22;3.00;;;1.20;;
19059;SDS011;9663;48.996;8.334;2023-03-29T08:27:48;3.35;;;1.30;;
19059;SDS011;9663;48.996;8.334;2023-03-29T08:30:14;3.25;;;1.30;;
19059;SDS011;9663;48.996;8.334;2023-03-29T08:32:40;3.35;;;1.38;;
19059;SDS011;9663;48.996;8.334;2023-03-29T08:35:09;2.83;;;1.20;;
19059;SDS011;9663;48.996;8.334;2023-03-29T08:37:35;3.33;;;1.33;;
19059;SDS011;9663;48.996;8.334;2023-03-29T08:40:01;3.58;;;1.55;;
19059;SDS011;9663;48.996;8.334;2023-03-29T08:45:41;2.95;;;1.20;;
19059;SDS011;9663;48.996;8.334;2023-03-29T08:48:39;3.25;;;1.33;;
19059;SDS011;9663;48.996;8.334;2023-03-29T08:51:31;2.80;;;1.20;;
19059;SDS011;9663;48.996;8.334;2023-03-29T08:54:04;3.72;;;1.77;;
19059;SDS011;9663;48.996;8.334;2023-03-29T08:56:39;4.25;;;1.30;;
19059;SDS011;9663;48.996;8.334;2023-03-29T08:59:52;3.38;;;1.25;;
19059;SDS011;9663;48.996;8.334;2023-03-29T09:01:59;2.80;;;1.10;;
19059;SDS011;9663;48.996;8.334;2023-03-29T09:04:33;4.90;;;1.60;;
19059;SDS011;9663;48.996;8.334;2023-03-29T09:07:04;3.88;;;1.58;;
19059;SDS011;9663;48.996;8.334;2023-03-29T09:09:34;3.80;;;1.67;;
19059;SDS011;9663;48.996;8.334;2023-03-29T09:15:15;3.88;;;1.40;;
19059;SDS011;9663;48.996;8.334;2023-03-29T09:21:05;3.03;;;1.38;;
19059;SDS011;9663;48.996;8.334;2023-03-29T09:26:46;3.35;;;1.48;;
19059;SDS011;9663;48.996;8.334;2023-03-29T09:32:35;3.10;;;1.30;;
19059;SDS011;9663;48.996;8.334;2023-03-29T09:35:15;4.22;;;1.30;;
19059;SDS011;9663;48.996;8.334;2023-03-29T09:37:48;2.58;;;1.10;;
19059;SDS011;9663;48.996;8.334;2023-03-29T09:40:25;3.63;;;1.20;;
19059;SDS011;9663;48.996;8.334;2023-03-29T09:42:58;3.58;;;1.33;;
19059;SDS011;9663;48.996;8.334;2023-03-29T09:45:28;2.83;;;1.15;;
19059;SDS011;9663;48.996;8.334;2023-03-29T09:50:41;3.28;;;1.40;;
19059;SDS011;9663;48.996;8.334;2023-03-29T09:53:15;2.58;;;1.10;;
19059;SDS011;9663;48.996;8.334;2023-03-29T09:55:47;3.60;;;1.27;;
19059;SDS011;9663;48.996;8.334;2023-03-29T09:58:18;3.95;;;1.30;;
19059;SDS011;9663;48.996;8.334;2023-03-29T10:00:51;3.97;;;1.60;;
19059;SDS011;9663;48.996;8.334;2023-03-29T10:03:25;3.45;;;1.40;;
19059;SDS011;9663;48.996;8.334;2023-03-29T10:05:55;3.85;;;1.30;;
19059;SDS011;9663;48.996;8.334;2023-03-29T10:10:55;3.40;;;1.30;;
19059;SDS011;9663;48.996;8.334;2023-03-29T10:13:30;2.78;;;1.20;;
19059;SDS011;9663;48.996;8.334;2023-03-29T10:16:02;3.10;;;1.30;;
19059;SDS011;9663;48.996;8.334;2023-03-29T10:18:41;3.60;;;1.13;;
19059;SDS011;9663;48.996;8.334;2023-03-29T10:21:08;2.78;;;1.10;;
19059;SDS011;9663;48.996;8.334;2023-03-29T10:23:42;2.25;;;0.90;;
19059;SDS011;9663;48.996;8.334;2023-03-29T10:26:09;2.90;;;1.02;;
19059;SDS011;9663;48.996;8.334;2023-03-29T10:28:51;2.67;;;1.00;;
19059;SDS011;9663;48.996;8.334;2023-03-29T10:31:21;3.65;;;1.05;;
19059;SDS011;9663;48.996;8.334;2023-03-29T10:33:50;2.67;;;1.13;;
19059;SDS011;9663;48.996;8.334;2023-03-29T10:36:21;3.00;;;1.30;;
19059;SDS011;9663;48.996;8.334;2023-03-29T10:38:51;2.70;;;1.10;;
19059;SDS011;9663;48.996;8.334;2023-03-29T10:41:21;3.15;;;1.30;;
19059;SDS011;9663;48.996;8.334;2023-03-29T10:43:49;3.33;;;1.13;;
19059;SDS011;9663;48.996;8.334;2023-03-29T10:46:22;2.28;;;0.88;;
19059;SDS011;9663;48.996;8.334;2023-03-29T10:49:13;2.30;;;1.00;;
19059;SDS011;9663;48.996;8.334;2023-03-29T10:51:44;2.55;;;0.90;;
19059;SDS011;9663;48.996;8.334;2023-03-29T10:54:12;3.05;;;1.05;;
19059;SDS011;9663;48.996;8.334;2023-03-29T10:59:31;3.22;;;1.20;;
19059;SDS011;9663;48.996;8.334;2023-03-29T11:02:29;2.45;;;1.00;;
19059;SDS011;9663;48.996;8.334;2023-03-29T11:08:24;3.25;;;1.25;;
19059;SDS011;9663;48.996;8.334;2023-03-29T11:11:13;2.28;;;1.05;;
19059;SDS011;9663;48.996;8.334;2023-03-29T11:23:02;2.92;;;1.00;;
19059;SDS011;9663;48.996;8.334;2023-03-29T11:30:40;2.80;;;1.02;;
19059;SDS011;9663;48.996;8.334;2023-03-29T11:33:50;2.13;;;0.85;;
19059;SDS011;9663;48.996;8.334;2023-03-29T11:36:46;2.17;;;0.95;;
19059;SDS011;9663;48.996;8.334;2023-03-29T11:42:23;2.70;;;1.00;;
19059;SDS011;9663;48.996;8.334;2023-03-29T11:44:56;3.33;;;1.00;;
19059;SDS011;9663;48.996;8.334;2023-03-29T11:47:26;2.63;;;0.93;;
19059;SDS011;9663;48.996;8.334;2023-03-29T11:52:35;2.78;;;1.00;;
19059;SDS011;9663;48.996;8.334;2023-03-29T11:57:40;3.03;;;1.00;;
19059;SDS011;9663;48.996;8.334;2023-03-29T12:00:19;3.00;;;1.10;;
19059;SDS011;9663;48.996;8.334;2023-03-29T12:02:56;2.50;;;1.17;;
19059;SDS011;9663;48.996;8.334;2023-03-29T12:05:35;3.60;;;1.10;;
19059;SDS011;9663;48.996;8.334;2023-03-29T12:08:17;4.18;;;1.13;;
19059;SDS011;9663;48.996;8.334;2023-03-29T12:11:17;2.20;;;0.90;;
19059;SDS011;9663;48.996;8.334;2023-03-29T12:13:54;2.22;;;0.90;;
19059;SDS011;9663;48.996;8.334;2023-03-29T12:19:29;2.20;;;0.85;;
19059;SDS011;9663;48.996;8.334;2023-03-29T12:22:05;3.20;;;1.13;;
19059;SDS011;9663;48.996;8.334;2023-03-29T12:24:33;3.33;;;1.25;;
19059;SDS011;9663;48.996;8.334;2023-03-29T12:39:34;2.95;;;1.13;;
19059;SDS011;9663;48.996;8.334;2023-03-29T12:42:05;3.72;;;1.20;;
19059;SDS011;9663;48.996;8.334;2023-03-29T12:44:42;3.15;;;1.20;;
19059;SDS011;9663;48.996;8.334;2023-03-29T12:47:30;3.03;;;0.90;;
19059;SDS011;9663;48.996;8.334;2023-03-29T12:50:14;2.45;;;1.10;;
19059;SDS011;9663;48.996;8.334;2023-03-29T12:53:23;2.78;;;0.98;;
19059;SDS011;9663;48.996;8.334;2023-03-29T13:01:34;2.58;;;1.00;;
19059;SDS011;9663;48.996;8.334;2023-03-29T13:04:20;2.42;;;0.95;;
19059;SDS011;9663;48.996;8.334;2023-03-29T13:07:01;3.45;;;1.00;;
19059;SDS011;9663;48.996;8.334;2023-03-29T13:15:03;2.00;;;0.80;;
19059;SDS011;9663;48.996;8.334;2023-03-29T13:18:02;3.15;;;0.95;;
19059;SDS011;9663;48.996;8.334;2023-03-29T13:23:49;1.80;;;0.70;;
19059;SDS011;9663;48.996;8.334;2023-03-29T13:26:30;3.67;;;1.00;;
19059;SDS011;9663;48.996;8.334;2023-03-29T13:38:23;2.13;;;0.90;;
19059;SDS011;9663;48.996;8.334;2023-03-29T13:45:43;2.15;;;0.90;;
19059;SDS011;9663;48.996;8.334;2023-03-29T13:51:03;3.65;;;1.30;;
19059;SDS011;9663;48.996;8.334;2023-03-29T13:53:58;2.85;;;1.00;;
19059;SDS011;9663;48.996;8.334;2023-03-29T13:56:48;2.15;;;0.93;;
19059;SDS011;9663;48.996;8.334;2023-03-29T14:05:18;2.75;;;1.00;;
19059;SDS011;9663;48.996;8.334;2023-03-29T14:07:51;2.47;;;0.90;;
19059;SDS011;9663;48.996;8.334;2023-03-29T14:10:23;2.85;;;0.95;;
19059;SDS011;9663;48.996;8.334;2023-03-29T14:12:56;2.35;;;0.90;;
19059;SDS011;9663;48.996;8.334;2023-03-29T14:15:26;3.15;;;1.05;;
19059;SDS011;9663;48.996;8.334;2023-03-29T14:18:12;2.42;;;1.00;;
19059;SDS011;9663;48.996;8.334;2023-03-29T14:20:43;1.92;;;0.80;;
19059;SDS011;9663;48.996;8.334;2023-03-29T14:23:11;2.63;;;1.00;;
19059;SDS011;9663;48.996;8.334;2023-03-29T14:25:43;2.50;;;0.90;;
19059;SDS011;9663;48.996;8.334;2023-03-29T14:28:19;1.58;;;0.73;;
19059;SDS011;9663;48.996;8.334;2023-03-29T14:30:51;2.60;;;1.00;;
19059;SDS011;9663;48.996;8.334;2023-03-29T14:33:23;1.92;;;0.80;;
19059;SDS011;9663;48.996;8.334;2023-03-29T14:35:51;1.70;;;0.73;;
19059;SDS011;9663;48.996;8.334;2023-03-29T14:38:19;3.22;;;0.70;;
19059;SDS011;9663;48.996;8.334;2023-03-29T14:40:48;3.15;;;0.90;;
19059;SDS011;9663;48.996;8.334;2023-03-29T14:43:16;2.08;;;0.80;;
19059;SDS011;9663;48.996;8.334;2023-03-29T14:45:46;2.53;;;0.90;;
19059;SDS011;9663;48.996;8.334;2023-03-29T14:48:13;2.25;;;0.82;;
19059;SDS011;9663;48.996;8.334;2023-03-29T14:50:40;2.50;;;1.00;;
19059;SDS011;9663;48.996;8.334;2023-03-29T14:53:09;2.03;;;0.80;;
19059;SDS011;9663;48.996;8.334;2023-03-29T14:55:49;3.15;;;1.00;;
19059;SDS011;9663;48.996;8.334;2023-03-29T14:58:27;2.38;;;0.80;;
19059;SDS011;9663;48.996;8.334;2023-03-29T15:00:56;2.03;;;0.90;;
19059;SDS011;9663;48.996;8.334;2023-03-29T15:03:41;2.58;;;0.85;;
19059;SDS011;9663;48.996;8.334;2023-03-29T15:06:09;2.58;;;1.10;;
19059;SDS011;9663;48.996;8.334;2023-03-29T15:08:38;2.60;;;0.98;;
19059;SDS011;9663;48.996;8.334;2023-03-29T15:11:10;2.22;;;0.80;;
19059;SDS011;9663;48.996;8.334;2023-03-29T15:13:46;2.80;;;0.95;;
19059;SDS011;9663;48.996;8.334;2023-03-29T15:16:15;3.13;;;1.00;;
19059;SDS011;9663;48.996;8.334;2023-03-29T15:18:45;2.50;;;0.90;;
19059;SDS011;9663;48.996;8.334;2023-03-29T15:21:15;3.80;;;1.10;;
19059;SDS011;9663;48.996;8.334;2023-03-29T15:23:57;3.15;;;0.98;;
19059;SDS011;9663;48.996;8.334;2023-03-29T15:26:33;2.85;;;0.80;;
19059;SDS011;9663;48.996;8.334;2023-03-29T15:31:56;2.13;;;0.90;;
19059;SDS011;9663;48.996;8.334;2023-03-29T15:34:24;2.47;;;1.00;;
19059;SDS011;9663;48.996;8.334;2023-03-29T15:36:53;2.70;;;0.90;;
19059;SDS011;9663;48.996;8.334;2023-03-29T15:39:21;3.28;;;1.05;;
19059;SDS011;9663;48.996;8.334;2023-03-29T15:41:49;2.40;;;0.98;;
19059;SDS011;9663;48.996;8.334;2023-03-29T15:44:17;2.35;;;0.85;;
19059;SDS011;9663;48.996;8.334;2023-03-29T15:46:50;2.58;;;1.00;;
19059;SDS011;9663;48.996;8.334;2023-03-29T15:49:16;2.05;;;0.90;;
19059;SDS011;9663;48.996;8.334;2023-03-29T15:51:41;2.72;;;1.00;;
19059;SDS011;9663;48.996;8.334;2023-03-29T15:54:07;2.58;;;1.05;;
19059;SDS011;9663;48.996;8.334;2023-03-29T15:56:33;2.35;;;0.90;;
19059;SDS011;9663;48.996;8.334;2023-03-29T15:59:21;2.33;;;0.95;;
19059;SDS011;9663;48.996;8.334;2023-03-29T16:01:47;3.47;;;0.93;;
19059;SDS011;9663;48.996;8.334;2023-03-29T16:04:14;2.30;;;1.00;;
19059;SDS011;9663;48.996;8.334;2023-03-29T16:06:43;2.33;;;1.02;;
19059;SDS011;9663;48.996;8.334;2023-03-29T16:09:12;3.55;;;1.27;;
19059;SDS011;9663;48.996;8.334;2023-03-29T16:11:39;2.85;;;1.02;;
19059;SDS011;9663;48.996;8.334;2023-03-29T16:14:26;3.42;;;1.00;;
19059;SDS011;9663;48.996;8.334;2023-03-29T16:16:55;2.53;;;1.02;;
19059;SDS011;9663;48.996;8.334;2023-03-29T16:19:23;2.35;;;0.80;;
19059;SDS011;9663;48.996;8.334;2023-03-29T16:21:51;2.55;;;0.93;;
19059;SDS011;9663;48.996;8.334;2023-03-29T16:24:19;3.33;;;1.08;;
19059;SDS011;9663;48.996;8.334;2023-03-29T16:26:48;2.65;;;1.00;;
19059;SDS011;9663;48.996;8.334;2023-03-29T16:29:14;1.88;;;0.82;;
19059;SDS011;9663;48.996;8.334;2023-03-29T16:31:41;2.35;;;1.10;;
19059;SDS011;9663;48.996;8.334;2023-03-29T16:34:11;3.17;;;1.25;;
19059;SDS011;9663;48.996;8.334;2023-03-29T16:36:38;3.72;;;1.08;;
19059;SDS011;9663;48.996;8.334;2023-03-29T16:39:05;3.05;;;1.00;;
19059;SDS011;9663;48.996;8.334;2023-03-29T16:41:31;2.53;;;1.00;;
19059;SDS011;9663;48.996;8.334;2023-03-29T16:43:57;2.50;;;1.00;;
19059;SDS011;9663;48.996;8.334;2023-03-29T16:46:23;2.85;;;1.20;;
19059;SDS011;9663;48.996;8.334;2023-03-29T16:48:49;3.30;;;1.17;;
19059;SDS011;9663;48.996;8.334;2023-03-29T16:51:17;3.78;;;1.33;;
19059;SDS011;9663;48.996;8.334;2023-03-29T16:53:46;3.90;;;1.30;;
19059;SDS011;9663;48.996;8.334;2023-03-29T16:56:13;3.33;;;1.20;;
19059;SDS011;9663;48.996;8.334;2023-03-29T16:58:40;3.30;;;1.20;;
19059;SDS011;9663;48.996;8.334;2023-03-29T17:01:07;3.33;;;1.13;;
19059;SDS011;9663;48.996;8.334;2023-03-29T17:03:40;4.72;;;1.40;;
19059;SDS011;9663;48.996;8.334;2023-03-29T17:06:07;4.65;;;1.33;;
19059;SDS011;9663;48.996;8.334;2023-03-29T17:08:35;5.10;;;1.25;;
19059;SDS011;9663;48.996;8.334;2023-03-29T17:11:01;3.13;;;1.30;;
19059;SDS011;9663;48.996;8.334;2023-03-29T17:13:27;4.10;;;1.10;;
19059;SDS011;9663;48.996;8.334;2023-03-29T17:15:54;3.42;;;1.23;;
19059;SDS011;9663;48.996;8.334;2023-03-29T17:18:21;2.90;;;1.15;;